Time;durP1;ratioP1;P1;durP2;ratioP2;P2;SDS_P1;SDS_P2;PMS_P1;PMS_P2;Temp;Humidity;BMP_temperature;BMP_pressure;BME280_temperature;BME280_humidity;BME280_pressure;Samples;Min_cycle;Max_cycle;Signal;HPM_P1;HPM_P2
2022/08/22 00:02:11;;;;;;;35.80;7.15;;;;;;;18.63;76.07;101572.53;5033378;28;20368;-74
2022/08/22 00:04:51;;;;;;;42.50;6.18;;;;;;;18.67;75.78;101579.25;5013701;28;20030;-75
2022/08/22 00:07:38;;;;;;;32.08;6.45;;;;;;;18.69;75.76;101577.09;5030353;28;20030;-75
2022/08/22 00:10:37;;;;;;;31.58;5.90;;;;;;;18.74;75.34;101573.72;5036977;28;20140;-75
2022/08/22 00:13:09;;;;;;;27.80;5.65;;;;;;;18.73;75.16;101581.09;5002096;28;20049;-74
2022/08/22 00:15:39;;;;;;;26.98;5.53;;;;;;;18.71;75.28;101576.91;5026881;28;20037;-73
2022/08/22 00:18:23;;;;;;;33.75;6.47;;;;;;;18.71;74.98;101574.19;5014588;28;20077;-74
2022/08/22 00:20:57;;;;;;;29.63;6.28;;;;;;;18.71;74.88;101574.19;5042106;28;20329;-74
2022/08/22 00:23:36;;;;;;;37.28;6.03;;;;;;;18.70;74.81;101572.50;5043895;28;20039;-73
2022/08/22 00:26:07;;;;;;;27.55;5.65;;;;;;;18.72;74.74;101578.56;5044691;28;20039;-74
2022/08/22 00:28:36;;;;;;;25.55;6.47;;;;;;;18.70;75.20;101576.06;5021500;28;20385;-75
2022/08/22 00:31:21;;;;;;;33.88;6.18;;;;;;;18.69;75.11;101582.56;5026638;28;20096;-74
2022/08/22 00:33:57;;;;;;;27.00;5.80;;;;;;;18.70;74.90;101578.81;5012955;28;20516;-74
2022/08/22 00:36:28;;;;;;;26.75;6.00;;;;;;;18.73;74.41;101580.25;5042628;28;20026;-75
2022/08/22 00:39:02;;;;;;;22.77;5.93;;;;;;;18.72;74.10;101575.84;5050709;28;20080;-75
2022/08/22 00:41:54;;;;;;;23.38;5.32;;;;;;;18.71;74.47;101569.56;5044085;28;20065;-74
2022/08/22 00:44:41;;;;;;;23.50;5.90;;;;;;;18.72;74.31;101570.38;5015527;28;20063;-74
2022/08/22 00:47:13;;;;;;;31.95;6.30;;;;;;;18.67;74.57;101572.94;5042332;28;20369;-75
2022/08/22 00:49:56;;;;;;;35.45;7.25;;;;;;;18.62;74.96;101571.72;5031689;28;20037;-75
2022/08/22 00:52:58;;;;;;;33.63;6.13;;;;;;;18.59;75.01;101574.88;5038852;28;20088;-73
2022/08/22 00:55:26;;;;;;;22.85;6.63;;;;;;;18.61;75.00;101569.19;5050296;28;20375;-73
2022/08/22 00:58:16;;;;;;;32.92;6.38;;;;;;;18.61;74.95;101570.00;5037872;28;20104;-73
2022/08/22 01:00:45;;;;;;;22.45;6.13;;;;;;;18.56;75.33;101572.59;5039019;28;20057;-73
2022/08/22 01:03:27;;;;;;;27.40;6.28;;;;;;;18.57;75.68;101576.97;5016743;28;20030;-72
2022/08/22 01:05:53;;;;;;;31.88;6.35;;;;;;;18.58;75.42;101578.63;5024704;28;20026;-74
2022/08/22 01:08:21;;;;;;;31.88;6.97;;;;;;;18.55;75.69;101576.34;5041211;28;20104;-76
2022/08/22 01:11:20;;;;;;;23.77;5.70;;;;;;;18.55;75.95;101581.78;5040715;28;20439;-74
2022/08/22 01:13:58;;;;;;;35.70;6.30;;;;;;;18.57;75.74;101579.69;5038813;28;20037;-74
2022/08/22 01:16:36;;;;;;;25.85;6.28;;;;;;;18.60;75.29;101576.53;5029209;28;20400;-72
2022/08/22 01:19:17;;;;;;;33.00;5.82;;;;;;;18.62;74.97;101573.59;5030867;28;20036;-75
2022/08/22 01:22:10;;;;;;;35.03;6.07;;;;;;;18.54;74.91;101574.69;5049165;28;20033;-75
2022/08/22 01:25:23;;;;;;;24.45;5.90;;;;;;;18.47;75.19;101573.03;5046846;28;20021;-74
2022/08/22 01:27:58;;;;;;;36.35;6.13;;;;;;;18.43;75.81;101573.47;4999974;28;20042;-74
2022/08/22 01:30:49;;;;;;;21.98;6.35;;;;;;;18.46;75.47;101568.63;5032884;28;20037;-74
2022/08/22 01:33:39;;;;;;;30.55;6.53;;;;;;;18.42;75.86;101576.41;5015082;28;20032;-73
2022/08/22 01:36:15;;;;;;;24.55;6.63;;;;;;;18.36;76.15;101571.84;5001246;28;20096;-74
2022/08/22 01:38:46;;;;;;;26.67;6.43;;;;;;;18.36;76.14;101572.66;5000632;28;20037;-73
2022/08/22 01:41:45;;;;;;;26.85;6.35;;;;;;;18.35;76.17;101575.59;5019362;28;20088;-73
2022/08/22 01:44:19;;;;;;;19.73;5.50;;;;;;;18.32;76.29;101582.31;5000125;28;20397;-75
2022/08/22 01:46:57;;;;;;;27.10;6.47;;;;;;;18.30;76.59;101586.28;5021020;28;20041;-73
2022/08/22 01:49:34;;;;;;;27.10;6.00;;;;;;;18.28;76.64;101585.69;5013989;28;20034;-73
2022/08/22 01:52:05;;;;;;;24.98;6.72;;;;;;;18.28;76.87;101589.25;5012253;28;20349;-74
2022/08/22 01:54:46;;;;;;;32.00;6.32;;;;;;;18.25;77.05;101583.41;5019057;28;20131;-73
2022/08/22 01:57:12;;;;;;;43.40;7.38;;;;;;;18.23;77.31;101580.06;4999889;28;20469;-74
2022/08/22 01:59:41;;;;;;;28.95;5.82;;;;;;;18.20;77.28;101587.59;5016782;28;20037;-74
2022/08/22 02:02:45;;;;;;;22.52;6.85;;;;;;;18.17;77.16;101585.31;4984853;28;20037;-75
2022/08/22 02:05:10;;;;;;;25.40;6.22;;;;;;;18.14;77.55;101585.75;5001331;28;20054;-75
2022/08/22 02:07:48;;;;;;;36.88;6.30;;;;;;;18.14;77.11;101579.44;5019657;28;20448;-74
2022/08/22 02:10:13;;;;;;;;;;;;;;;18.12;77.39;101579.66;5016142;28;20468;-74
2022/08/22 02:12:52;;;;;;;17.37;5.23;;;;;;;18.15;77.13;101581.94;5016825;28;19917;-76
2022/08/22 02:15:23;;;;;;;31.85;6.38;;;;;;;18.14;76.99;101580.28;5016163;28;20308;-74
2022/08/22 02:17:58;;;;;;;27.63;6.10;;;;;;;18.19;76.76;101574.19;4997243;28;20030;-74
2022/08/22 02:20:46;;;;;;;23.67;5.35;;;;;;;18.18;76.44;101573.34;5021156;28;20049;-74
2022/08/22 02:23:22;;;;;;;26.15;5.72;;;;;;;18.21;76.25;101562.00;5003627;28;20507;-74
2022/08/22 02:25:53;;;;;;;36.22;6.80;;;;;;;18.20;76.57;101559.53;5015155;28;20045;-73
2022/08/22 02:28:27;;;;;;;26.75;5.78;;;;;;;18.19;76.35;101560.56;4999937;28;20030;-76
2022/08/22 02:31:10;;;;;;;26.40;5.57;;;;;;;18.15;76.42;101564.78;5016442;28;20030;-74
2022/08/22 02:33:45;;;;;;;33.25;5.93;;;;;;;18.11;76.59;101558.06;4996485;28;20068;-73
2022/08/22 02:36:24;;;;;;;26.23;5.93;;;;;;;18.16;76.53;101556.38;5031325;28;20033;-72
2022/08/22 02:39:17;;;;;;;24.25;5.25;;;;;;;18.16;76.47;101561.81;5014575;28;20100;-75
2022/08/22 02:42:05;;;;;;;28.02;5.88;;;;;;;18.14;76.55;101558.50;5033762;28;20032;-74
2022/08/22 02:44:34;;;;;;;32.83;6.35;;;;;;;18.15;76.41;101554.72;5017982;28;20072;-74
2022/08/22 02:47:34;;;;;;;34.85;6.43;;;;;;;18.11;76.29;101558.06;5015172;28;20547;-76
2022/08/22 02:50:19;;;;;;;27.38;6.15;;;;;;;18.13;76.26;101562.25;4955142;28;20064;-77
2022/08/22 02:53:14;;;;;;;27.98;6.57;;;;;;;18.06;76.53;101566.03;5001428;28;20036;-75
2022/08/22 02:56:13;;;;;;;38.00;6.80;;;;;;;18.07;76.65;101554.13;5028864;28;20123;-73
2022/08/22 02:58:48;;;;;;;23.35;6.53;;;;;;;18.03;76.59;101550.97;4973539;28;20046;-75
2022/08/22 03:01:16;;;;;;;28.55;5.43;;;;;;;18.01;76.89;101554.97;5015757;28;20469;-74
2022/08/22 03:03:45;;;;;;;17.13;5.60;;;;;;;17.95;77.15;101548.47;5023506;28;20033;-74
2022/08/22 03:06:16;;;;;;;32.42;7.15;;;;;;;17.94;77.23;101549.53;5033950;28;20150;-75
2022/08/22 03:09:01;;;;;;;32.33;6.53;;;;;;;17.87;77.79;101546.00;5032353;28;20057;-75
2022/08/22 03:11:29;;;;;;;26.33;6.50;;;;;;;17.86;78.17;101547.06;5014861;28;20080;-74
2022/08/22 03:13:57;;;;;;;33.97;7.13;;;;;;;17.80;78.10;101539.72;5015863;28;21379;-74
2022/08/22 03:16:44;;;;;;;29.55;6.75;;;;;;;17.78;78.57;101531.75;5034694;28;20037;-73
2022/08/22 03:19:15;;;;;;;31.80;7.05;;;;;;;17.80;78.63;101520.66;5025538;28;20036;-73
2022/08/22 03:21:49;;;;;;;30.52;6.63;;;;;;;17.70;78.63;101511.03;5014413;28;20041;-74
2022/08/22 03:24:23;;;;;;;24.52;6.45;;;;;;;17.65;79.20;101521.72;5032943;28;20033;-75
2022/08/22 03:26:51;;;;;;;23.92;7.03;;;;;;;17.63;79.49;101517.53;5032850;28;20077;-73
2022/08/22 03:29:31;;;;;;;27.98;6.80;;;;;;;17.58;79.84;101510.00;5014127;28;20021;-74
2022/08/22 03:32:12;;;;;;;16.33;7.47;;;;;;;17.56;79.91;101514.81;4994878;28;20022;-74
2022/08/22 03:34:57;;;;;;;26.23;6.88;;;;;;;17.54;80.20;101508.75;5011286;28;21241;-73
2022/08/22 03:37:33;;;;;;;37.20;6.63;;;;;;;17.47;80.29;101508.75;5013487;28;20065;-75
2022/08/22 03:40:01;;;;;;;28.23;7.80;;;;;;;17.49;80.54;101506.66;5029527;28;20161;-75
2022/08/22 03:42:51;;;;;;;34.72;7.00;;;;;;;17.45;80.55;101513.56;5007517;28;20035;-74
2022/08/22 03:45:36;;;;;;;25.75;6.70;;;;;;;17.42;80.88;101513.16;5032310;28;20025;-73
2022/08/22 03:48:16;;;;;;;34.88;6.70;;;;;;;17.39;81.10;101511.69;5030840;28;20021;-73
2022/08/22 03:50:56;;;;;;;23.77;6.95;;;;;;;17.34;81.13;101509.59;5034001;28;20053;-72
2022/08/22 03:53:46;;;;;;;24.38;6.32;;;;;;;17.27;81.45;101519.69;5014355;28;20083;-73
2022/08/22 03:56:30;;;;;;;22.85;7.20;;;;;;;17.26;81.81;101512.53;5013935;28;20460;-75
2022/08/22 03:58:59;;;;;;;32.35;6.75;;;;;;;17.25;81.93;101520.94;5037714;28;20029;-73
2022/08/22 04:01:55;;;;;;;23.45;6.85;;;;;;;17.22;82.17;101522.19;5036521;28;20061;-73
2022/08/22 04:04:45;;;;;;;30.08;7.22;;;;;;;17.18;82.25;101520.09;5015160;28;20060;-74
2022/08/22 04:07:18;;;;;;;29.08;6.80;;;;;;;17.14;82.59;101526.97;5031434;28;20064;-75
2022/08/22 04:10:02;;;;;;;32.70;6.75;;;;;;;17.13;82.72;101523.44;5020579;28;20045;-73
2022/08/22 04:12:52;;;;;;;27.67;6.95;;;;;;;17.12;82.82;101529.91;5035786;28;20036;-74
2022/08/22 04:15:34;;;;;;;31.60;7.00;;;;;;;17.04;83.36;101525.53;5033710;28;20038;-73
2022/08/22 04:18:14;;;;;;;26.42;6.90;;;;;;;17.00;83.60;101528.84;5016568;28;20022;-73
2022/08/22 04:20:49;;;;;;;27.98;7.47;;;;;;;16.99;83.66;101533.47;5016120;28;20041;-75
2022/08/22 04:23:23;;;;;;;33.60;7.65;;;;;;;16.94;83.94;101530.53;5033579;28;20088;-74
2022/08/22 04:26:14;;;;;;;33.75;8.05;;;;;;;16.93;84.37;101539.75;5036316;28;20017;-74
2022/08/22 04:28:52;;;;;;;28.25;6.85;;;;;;;16.93;84.30;101538.88;5033164;28;20055;-75
2022/08/22 04:31:26;;;;;;;32.40;7.53;;;;;;;16.88;84.62;101542.25;5032235;28;20037;-74
2022/08/22 04:34:15;;;;;;;29.90;7.20;;;;;;;16.87;84.91;101545.97;5032069;28;20073;-74
2022/08/22 04:36:49;;;;;;;32.72;6.40;;;;;;;16.86;85.16;101539.72;5032768;28;20092;-76
2022/08/22 04:39:35;;;;;;;29.67;7.07;;;;;;;16.84;85.23;101541.78;5019717;28;20072;-74
2022/08/22 04:42:02;;;;;;;27.38;7.72;;;;;;;16.82;85.56;101546.59;5031540;28;20105;-75
2022/08/22 04:44:42;;;;;;;27.50;7.32;;;;;;;16.81;85.40;101544.94;5050459;28;20098;-74
2022/08/22 04:47:30;;;;;;;25.65;7.32;;;;;;;16.85;85.56;101548.94;5032134;28;20084;-76
2022/08/22 04:50:07;;;;;;;32.78;7.25;;;;;;;16.85;85.11;101548.06;5031998;28;20068;-78
2022/08/22 04:52:40;;;;;;;29.77;7.32;;;;;;;16.84;85.21;101552.66;5020296;28;20033;-73
2022/08/22 04:55:18;;;;;;;26.90;7.13;;;;;;;16.86;85.21;101549.75;5014395;28;20029;-75
2022/08/22 04:57:49;;;;;;;37.95;7.55;;;;;;;16.82;85.18;101554.75;5031933;28;20405;-73
2022/08/22 05:00:15;;;;;;;32.25;7.30;;;;;;;16.85;84.87;101554.38;5028368;28;20435;-74
2022/08/22 05:02:46;;;;;;;31.08;6.47;;;;;;;16.81;84.80;101557.69;5015882;28;20029;-74
2022/08/22 05:05:16;;;;;;;34.10;7.32;;;;;;;16.80;85.09;101554.16;5017836;28;20543;-73
2022/08/22 05:07:52;;;;;;;25.15;7.03;;;;;;;16.80;85.17;101561.47;5020619;28;20029;-73
2022/08/22 05:10:22;;;;;;;24.75;7.72;;;;;;;16.80;85.25;101567.72;5016567;28;20378;-73
2022/08/22 05:13:03;;;;;;;29.10;6.65;;;;;;;16.75;85.52;101570.19;5016582;28;20064;-74
2022/08/22 05:15:41;;;;;;;30.95;7.35;;;;;;;16.77;85.93;101573.59;5016596;28;20049;-72
2022/08/22 05:18:14;;;;;;;27.50;6.70;;;;;;;16.80;85.68;101565.03;5035297;28;20448;-73
2022/08/22 05:20:41;;;;;;;26.38;6.53;;;;;;;16.81;85.49;101569.41;4998757;28;20041;-73
2022/08/22 05:23:28;;;;;;;34.88;7.63;;;;;;;16.80;85.23;101562.31;5016749;28;20037;-74
2022/08/22 05:25:57;;;;;;;26.33;7.35;;;;;;;16.80;85.17;101567.72;5018271;28;20531;-74
2022/08/22 05:28:26;;;;;;;36.05;7.55;;;;;;;16.82;85.07;101565.63;5035982;28;20033;-74
2022/08/22 05:30:52;;;;;;;31.80;7.70;;;;;;;16.88;84.80;101564.81;5035313;28;20033;-74
2022/08/22 05:33:31;;;;;;;27.00;6.65;;;;;;;16.93;84.43;101566.06;5029587;28;20033;-76
2022/08/22 05:36:01;;;;;;;26.85;6.93;;;;;;;16.89;84.13;101566.47;5015482;28;20030;-76
2022/08/22 05:38:31;;;;;;;27.90;7.00;;;;;;;16.96;84.12;101565.69;5033264;28;20068;-74
2022/08/22 05:41:08;;;;;;;28.63;7.50;;;;;;;17.02;83.72;101571.13;5032469;28;20028;-74
2022/08/22 05:43:38;;;;;;;29.80;6.70;;;;;;;17.15;83.40;101573.03;5016835;28;20044;-74
2022/08/22 05:46:06;;;;;;;32.58;7.05;;;;;;;17.30;83.54;101572.84;5015739;28;20079;-77
2022/08/22 05:48:44;;;;;;;27.95;7.03;;;;;;;17.68;82.22;101577.63;5013315;28;20104;-75
2022/08/22 05:51:17;;;;;;;33.10;7.90;;;;;;;18.27;79.51;101578.56;5009357;28;20029;-75
2022/08/22 05:53:45;;;;;;;24.35;6.47;;;;;;;18.50;77.53;101573.44;5003564;28;20030;-74
2022/08/22 05:56:19;;;;;;;30.75;7.03;;;;;;;18.97;76.31;101584.97;4999061;28;20041;-74
2022/08/22 05:58:49;;;;;;;26.58;7.15;;;;;;;19.27;74.42;101582.44;5031505;28;20026;-73
2022/08/22 06:01:35;;;;;;;17.70;5.60;;;;;;;19.86;72.92;101583.00;5032076;28;20026;-75
2022/08/22 06:04:04;;;;;;;26.55;6.43;;;;;;;20.17;71.06;101578.47;5029576;28;20224;-75
2022/08/22 06:06:36;;;;;;;31.15;6.75;;;;;;;20.38;69.04;101582.66;5032690;28;20018;-75
2022/08/22 06:09:06;;;;;;;29.27;6.30;;;;;;;20.63;68.27;101585.28;5008412;28;20468;-75
2022/08/22 06:11:56;;;;;;;24.58;6.30;;;;;;;20.95;67.26;101590.53;5032335;28;20029;-76
2022/08/22 06:14:27;;;;;;;25.40;6.30;;;;;;;21.39;65.79;101591.16;5016734;28;20115;-75
2022/08/22 06:16:58;;;;;;;37.03;7.45;;;;;;;21.96;64.40;101591.41;5030712;28;20029;-76
2022/08/22 06:19:24;;;;;;;27.30;6.68;;;;;;;22.48;61.35;101601.59;5032182;28;20068;-75
2022/08/22 06:21:50;;;;;;;33.30;7.65;;;;;;;22.84;60.50;101596.81;5013704;28;20041;-75
2022/08/22 06:24:21;;;;;;;41.50;7.60;;;;;;;23.30;58.98;101601.25;5013777;28;20060;-76
2022/08/22 06:26:50;;;;;;;40.92;7.60;;;;;;;23.66;57.59;101604.56;4994109;28;20053;-75
2022/08/22 06:29:34;;;;;;;24.40;7.28;;;;;;;23.95;56.73;101598.97;5031285;28;20452;-76
2022/08/22 06:32:02;;;;;;;25.08;6.20;;;;;;;24.50;54.06;101590.66;5000321;28;20052;-76
2022/08/22 06:34:33;;;;;;;41.55;7.35;;;;;;;24.66;53.18;101594.41;5011766;28;20037;-76
2022/08/22 06:37:03;;;;;;;34.25;7.28;;;;;;;25.03;52.59;101590.13;5028325;28;20357;-74
2022/08/22 06:39:34;;;;;;;29.25;6.68;;;;;;;25.29;51.68;101593.97;5030458;28;20030;-74
2022/08/22 06:42:07;;;;;;;30.27;7.55;;;;;;;25.32;50.86;101586.00;5026303;28;20545;-76
2022/08/22 06:44:44;;;;;;;22.30;6.60;;;;;;;25.42;50.37;101593.53;5030111;28;20076;-75
2022/08/22 06:47:17;;;;;;;23.92;6.70;;;;;;;25.48;49.94;101588.88;5014131;28;20443;-76
2022/08/22 06:49:44;;;;;;;26.92;6.75;;;;;;;25.68;49.64;101593.72;5013438;28;20037;-76
2022/08/22 06:52:13;;;;;;;28.38;6.50;;;;;;;25.65;50.05;101591.50;5005832;28;20080;-75
2022/08/22 06:54:43;;;;;;;31.75;7.20;;;;;;;25.99;49.95;101592.88;5004602;28;20029;-75
2022/08/22 06:57:25;;;;;;;26.75;7.20;;;;;;;26.17;48.48;101580.53;5023447;28;20049;-75
2022/08/22 06:59:52;;;;;;;28.23;6.93;;;;;;;26.66;47.39;101573.84;5031832;28;20033;-75
2022/08/22 07:02:26;;;;;;;25.20;7.10;;;;;;;26.70;46.67;101563.91;5013613;28;20022;-74
2022/08/22 07:04:52;;;;;;;30.33;7.68;;;;;;;26.77;46.70;101564.47;5012043;28;20034;-76
2022/08/22 07:07:18;;;;;;;30.35;7.30;;;;;;;26.47;47.37;101554.97;5029033;28;20456;-74
2022/08/22 07:09:49;;;;;;;29.20;7.43;;;;;;;26.45;46.80;101557.19;5012571;28;20108;-75
2022/08/22 07:12:19;;;;;;;28.10;8.05;;;;;;;26.72;47.62;101561.69;5031175;28;20030;-75
2022/08/22 07:14:49;;;;;;;22.67;7.13;;;;;;;27.07;46.67;101560.09;5012950;28;20029;-75
2022/08/22 07:17:27;;;;;;;22.90;6.65;;;;;;;27.43;46.56;101560.13;5014502;28;20040;-75
2022/08/22 07:20:05;;;;;;;28.60;8.02;;;;;;;28.04;44.90;101560.00;5030949;28;20376;-75
2022/08/22 07:22:33;;;;;;;35.50;7.80;;;;;;;27.85;45.94;101564.50;5033268;28;20369;-75
2022/08/22 07:25:09;;;;;;;35.63;7.95;;;;;;;27.66;45.34;101559.53;5029662;28;20431;-74
2022/08/22 07:28:03;;;;;;;36.23;8.93;;;;;;;27.70;45.54;101555.09;5002828;28;20041;-76
2022/08/22 07:30:43;;;;;;;23.90;7.45;;;;;;;28.62;44.08;101554.78;5008088;28;20289;-75
2022/08/22 07:33:32;;;;;;;27.58;7.43;;;;;;;28.92;42.27;101555.69;4995440;28;20524;-75
2022/08/22 07:36:00;;;;;;;28.67;7.88;;;;;;;29.36;40.79;101559.50;5030876;28;20049;-76
2022/08/22 07:38:42;;;;;;;27.55;7.47;;;;;;;29.29;42.21;101562.63;5030307;28;20484;-75
2022/08/22 07:41:20;;;;;;;27.30;7.00;;;;;;;30.08;40.79;101557.66;5034203;28;20435;-75
2022/08/22 07:43:50;;;;;;;21.45;7.60;;;;;;;29.58;40.42;101559.84;4999980;28;20030;-75
2022/08/22 07:46:29;;;;;;;25.17;7.15;;;;;;;29.67;41.17;101562.84;5000647;28;20171;-76
2022/08/22 07:49:01;;;;;;;21.25;6.30;;;;;;;30.13;39.26;101565.09;5006230;28;20029;-76
2022/08/22 07:51:34;;;;;;;20.63;6.63;;;;;;;30.65;38.68;101568.88;5032077;28;20034;-76
2022/08/22 07:54:06;;;;;;;23.52;6.53;;;;;;;30.23;39.65;101565.00;5018652;28;20041;-75
2022/08/22 07:56:56;;;;;;;21.45;7.30;;;;;;;27.49;43.31;101564.53;5001091;28;20029;-75
2022/08/22 07:59:23;;;;;;;25.45;6.75;;;;;;;28.63;42.65;101561.16;5030799;28;20060;-76
2022/08/22 08:01:55;;;;;;;31.50;8.25;;;;;;;28.87;42.54;101561.25;5013564;28;20038;-76
2022/08/22 08:04:25;;;;;;;23.88;6.88;;;;;;;29.68;40.39;101559.78;5015878;28;20026;-77
2022/08/22 08:06:52;;;;;;;31.98;7.07;;;;;;;30.30;38.12;101559.91;5012907;28;20156;-75
2022/08/22 08:09:18;;;;;;;22.42;6.88;;;;;;;28.74;41.26;101556.38;5012474;28;20025;-76
2022/08/22 08:11:44;;;;;;;35.28;7.07;;;;;;;28.79;42.51;101550.81;5013176;28;20161;-76
2022/08/22 08:14:12;;;;;;;32.13;6.50;;;;;;;29.36;41.28;101554.81;5015103;28;20108;-75
2022/08/22 08:16:45;;;;;;;26.70;7.88;;;;;;;29.79;40.55;101560.50;5010641;28;20028;-75
2022/08/22 08:19:12;;;;;;;26.80;7.22;;;;;;;30.52;38.79;101562.13;5014205;28;20025;-78
2022/08/22 08:21:41;;;;;;;26.20;7.32;;;;;;;31.47;36.86;101556.50;4999409;28;20018;-76
2022/08/22 08:24:12;;;;;;;25.33;6.40;;;;;;;32.25;35.81;101562.19;5016016;28;20037;-75
2022/08/22 08:28:32;;;;;;;28.15;7.82;;;;;;;31.05;36.56;101552.72;5006626;28;20112;-75
2022/08/22 08:29:27;;;;;;;34.42;8.45;;;;;;;30.02;39.15;101552.44;4996827;28;20037;-76
2022/08/22 08:31:53;;;;;;;19.65;7.13;;;;;;;30.18;39.54;101557.53;5012584;28;20649;-76
2022/08/22 08:34:21;;;;;;;29.40;7.90;;;;;;;30.48;38.55;101557.47;5001621;28;20085;-76
2022/08/22 08:36:47;;;;;;;27.90;6.70;;;;;;;30.70;38.12;101546.59;4994036;28;20037;-76
2022/08/22 08:39:20;;;;;;;24.53;5.77;;;;;;;31.25;36.15;101545.97;5013995;28;20018;-76
2022/08/22 08:42:23;;;;;;;24.98;5.75;;;;;;;31.63;36.45;101540.34;4996056;28;20041;-75
2022/08/22 08:45:00;;;;;;;24.40;6.38;;;;;;;32.13;35.73;101549.63;5016390;28;20026;-75
2022/08/22 08:47:39;;;;;;;24.48;5.82;;;;;;;31.57;35.39;101547.09;5016136;28;20030;-75
2022/08/22 08:50:13;;;;;;;29.13;5.68;;;;;;;30.66;35.72;101539.97;4995297;28;20124;-75
2022/08/22 08:52:57;;;;;;;25.33;6.28;;;;;;;30.71;37.50;101537.13;4997245;28;20025;-75
2022/08/22 08:55:37;;;;;;;27.27;5.40;;;;;;;30.12;37.45;101536.53;4998492;28;20033;-75
2022/08/22 08:58:31;;;;;;;33.22;5.65;;;;;;;29.88;37.64;101533.75;4998057;28;20041;-75
2022/08/22 09:00:59;;;;;;;27.42;5.45;;;;;;;30.22;36.25;101529.19;4997395;28;20042;-75
2022/08/22 09:03:36;;;;;;;22.90;5.00;;;;;;;31.26;34.94;101537.34;5013450;28;20071;-75
2022/08/22 09:06:29;;;;;;;23.60;4.93;;;;;;;31.28;34.81;101540.66;5012306;28;20032;-77
2022/08/22 09:09:15;;;;;;;23.35;5.82;;;;;;;31.39;35.52;101546.91;5012039;28;20437;-75
2022/08/22 09:11:56;;;;;;;;;;;;;;;30.13;36.67;101540.94;4982017;28;20030;-75
2022/08/22 09:14:36;;;;;;;22.63;4.50;;;;;;;31.67;33.97;101530.22;4996099;28;19917;-74
2022/08/22 09:17:08;;;;;;;29.38;8.82;;;;;;;31.58;34.67;101532.09;5032594;28;20127;-75
2022/08/22 09:19:47;;;;;;;19.35;4.35;;;;;;;31.79;32.98;101526.94;5016371;28;20029;-74
2022/08/22 09:22:32;;;;;;;31.00;5.30;;;;;;;31.86;32.36;101535.69;5025812;28;20035;-75
2022/08/22 09:25:01;;;;;;;28.45;4.80;;;;;;;32.05;32.50;101528.09;4981291;28;20040;-75
2022/08/22 09:27:56;;;;;;;22.13;5.10;;;;;;;32.41;31.69;101527.28;5014341;28;20029;-75
2022/08/22 09:30:23;;;;;;;25.77;4.60;;;;;;;32.32;32.83;101523.63;5000463;28;20060;-75
2022/08/22 09:32:59;;;;;;;31.05;5.25;;;;;;;32.55;32.35;101522.56;5008151;28;20096;-75
2022/08/22 09:35:33;;;;;;;23.77;5.00;;;;;;;33.19;31.56;101513.22;5033098;28;20054;-76
2022/08/22 09:38:27;;;;;;;25.33;5.38;;;;;;;32.52;32.06;101514.84;5033984;28;20103;-75
2022/08/22 09:41:17;;;;;;;27.58;4.57;;;;;;;33.14;30.13;101511.38;4993234;28;20064;-75
2022/08/22 09:44:06;;;;;;;32.22;5.43;;;;;;;32.62;30.63;101510.13;5033198;28;20090;-75
2022/08/22 09:46:41;;;;;;;22.48;5.55;;;;;;;32.63;31.46;101507.06;5018017;28;20114;-75
2022/08/22 09:49:25;;;;;;;24.98;4.65;;;;;;;32.49;31.77;101509.03;5026076;28;20082;-75
2022/08/22 09:52:19;;;;;;;20.40;4.80;;;;;;;30.73;34.53;101503.44;5013110;28;20061;-75
2022/08/22 09:54:49;;;;;;;19.00;4.78;;;;;;;29.96;36.23;101493.41;5016731;28;20096;-76
2022/08/22 09:57:17;;;;;;;21.13;4.40;;;;;;;30.60;34.94;101491.16;5017337;28;20113;-74
2022/08/22 10:00:05;;;;;;;26.25;4.93;;;;;;;31.25;34.03;101501.50;5032179;28;20094;-75
2022/08/22 10:02:44;;;;;;;20.35;4.47;;;;;;;31.02;33.76;101497.75;5014477;28;20045;-75
2022/08/22 10:05:15;;;;;;;23.80;4.75;;;;;;;31.54;32.73;101490.13;5015254;28;20028;-75
2022/08/22 10:08:01;;;;;;;20.77;4.28;;;;;;;31.93;31.93;101495.19;5013551;28;20419;-75
2022/08/22 10:10:58;;;;;;;24.80;3.88;;;;;;;32.38;31.74;101500.06;5033901;28;20018;-76
2022/08/22 10:13:42;;;;;;;21.25;4.47;;;;;;;32.53;31.40;101494.16;5026567;28;20036;-75
2022/08/22 10:16:31;;;;;;;19.02;3.85;;;;;;;32.05;31.80;101491.91;5023140;28;20030;-75
2022/08/22 10:19:18;;;;;;;22.08;3.90;;;;;;;31.37;32.25;101487.97;5013128;28;20040;-76
2022/08/22 10:22:07;;;;;;;28.52;4.50;;;;;;;30.48;34.13;101488.84;5028340;28;20413;-75
2022/08/22 10:24:46;;;;;;;26.00;4.45;;;;;;;29.28;36.10;101486.09;5031025;28;20029;-75
2022/08/22 10:27:17;;;;;;;24.55;4.07;;;;;;;30.00;35.40;101493.66;5021095;28;20025;-77
2022/08/22 10:30:04;;;;;;;19.40;3.83;;;;;;;30.33;34.57;101481.56;5030538;28;20127;-75
2022/08/22 10:32:51;;;;;;;29.60;5.00;;;;;;;29.48;35.81;101488.66;5004399;28;20033;-75
2022/08/22 10:35:20;;;;;;;18.27;4.97;;;;;;;29.53;35.43;101488.63;5030169;28;20049;-75
2022/08/22 10:37:57;;;;;;;37.08;5.72;;;;;;;28.36;37.86;101495.09;5008149;28;20034;-75
2022/08/22 10:40:31;;;;;;;19.95;4.78;;;;;;;27.94;39.20;101499.19;4995302;28;20022;-76
2022/08/22 10:43:01;;;;;;;29.48;5.88;;;;;;;28.22;38.66;101498.47;5013820;28;20040;-75
2022/08/22 10:45:29;;;;;;;20.50;4.45;;;;;;;28.85;37.48;101497.00;5022829;28;20051;-76
2022/08/22 10:47:57;;;;;;;28.55;5.35;;;;;;;29.48;36.06;101487.84;4997225;28;20117;-74
2022/08/22 10:50:49;;;;;;;33.08;4.55;;;;;;;29.80;35.69;101495.56;5045718;28;20021;-74
2022/08/22 10:53:34;;;;;;;25.30;5.38;;;;;;;29.64;35.66;101486.59;5007502;28;20064;-75
2022/08/22 10:56:17;;;;;;;28.30;5.28;;;;;;;29.34;36.79;101490.50;5013543;28;20025;-76
2022/08/22 10:58:53;;;;;;;22.27;5.13;;;;;;;28.95;36.87;101496.91;5031340;28;20041;-76
2022/08/22 11:01:22;;;;;;;18.92;4.50;;;;;;;27.30;39.40;101496.00;5013400;28;20044;-76
2022/08/22 11:04:03;;;;;;;21.10;4.65;;;;;;;27.30;40.45;101486.88;5030572;28;20107;-75
2022/08/22 11:06:52;;;;;;;22.42;4.40;;;;;;;27.19;40.79;101482.47;5016755;28;20029;-76
2022/08/22 11:09:17;;;;;;;23.17;5.03;;;;;;;27.21;40.88;101481.09;5026360;28;20052;-77
2022/08/22 11:11:49;;;;;;;19.27;4.55;;;;;;;27.94;39.71;101479.81;5027725;28;20037;-76
2022/08/22 11:14:44;;;;;;;25.38;4.97;;;;;;;28.54;38.59;101480.63;5027713;28;20499;-75
2022/08/22 11:17:18;;;;;;;17.00;4.35;;;;;;;29.16;35.98;101486.50;5011214;28;20053;-75
2022/08/22 11:20:17;;;;;;;20.55;5.30;;;;;;;28.58;36.70;101480.88;5026616;28;20360;-75
2022/08/22 11:23:04;;;;;;;23.48;5.15;;;;;;;28.08;37.77;101475.31;5011256;28;20121;-75
2022/08/22 11:25:42;;;;;;;19.88;4.88;;;;;;;28.96;36.32;101468.06;5012371;28;20044;-75
2022/08/22 11:28:14;;;;;;;23.20;4.88;;;;;;;29.20;36.38;101475.66;5012271;28;20040;-76
2022/08/22 11:31:07;;;;;;;20.27;4.57;;;;;;;28.78;36.49;101474.31;5030501;28;20027;-75
2022/08/22 11:33:44;;;;;;;25.73;4.68;;;;;;;30.20;35.09;101473.94;5031069;28;20123;-75
2022/08/22 11:36:14;;;;;;;;;;;;;;;30.93;33.98;101474.53;4994757;28;20034;-75
2022/08/22 11:38:52;;;;;;;19.35;4.88;;;;;;;30.79;33.17;101475.28;4992384;28;21482;-76
2022/08/22 11:41:24;;;;;;;25.52;4.93;;;;;;;29.97;33.82;101470.91;5013074;28;20110;-75
2022/08/22 11:43:56;;;;;;;17.50;4.47;;;;;;;29.85;33.78;101464.16;5010778;28;20109;-76
2022/08/22 11:46:31;;;;;;;16.58;4.70;;;;;;;29.99;33.55;101467.88;4984497;28;20042;-76
2022/08/22 11:49:05;;;;;;;23.50;4.90;;;;;;;29.91;33.63;101466.56;4978134;28;20034;-75
2022/08/22 11:51:49;;;;;;;22.98;4.68;;;;;;;30.15;33.23;101474.03;5010407;28;20030;-77
2022/08/22 11:54:40;;;;;;;27.95;5.00;;;;;;;29.98;33.47;101469.78;5010836;28;20049;-75
2022/08/22 11:57:10;;;;;;;19.67;4.20;;;;;;;30.57;33.16;101469.53;4986733;28;20069;-75
2022/08/22 11:59:40;;;;;;;18.58;4.40;;;;;;;31.20;31.84;101477.41;4994615;28;20030;-74
2022/08/22 12:02:29;;;;;;;19.05;4.55;;;;;;;31.17;31.36;101472.44;5024327;28;20127;-74
2022/08/22 12:05:05;;;;;;;17.75;4.32;;;;;;;31.77;30.71;101467.97;4978839;28;20388;-76